Rhinelander, WI

11:11 PM CDT en Octubre 24, 2014 (GMT -0500)
Rhinelander-Oneida County | Change Station
CLOSE
Current Station
Aeropuerto
Location: Rhinelander,
Altura: 1624 ft
Estaciones meteorológicas cercanas

Alt 1624 ft 45.63 °N, 89.48 °W | Updated 18 minutes ago

Nublado
Nublado
53 ° F
Sensación térmica 53 ° F
N
10
Viento Variable Viento desde SO

Hoy
Alta -- | Baja -- ° F
--% Posibilidad de precipitaciones
Ayer
Alta -- | Baja -- ° F
Precip. -- pul
7:26 AM 5:56 PM
Luna nueva, 2% visible
Presión 29.85 pul
Visibilidad 9.0 Millas
Nubes Nublado 700 ft
Punto de rocío 51 ° F
Humedad 93%
Precipitaciones 0.00 pul
Espesor de la nieve No disponible.
UV 0 de una escala de 12
Polen .60 de una escala de 12
Calidad del aire No disponible.
Flu Activity Sporadic
METAR KRHI 250353Z AUTO 23009KT 9SM OVC007 12/11 A2983 RMK AO2 SLP107 T01170106

More Conditions Fewer Conditions

Presión 29.85 pul
Visibilidad 9.0 Millas
Nubes Nublado 700 ft
Punto de rocío 51 ° F
Humedad 93%
Precipitaciones 0.00 pul
Espesor de la nieve No disponible.
UV 0 de una escala de 12
Polen .60 de una escala de 12
Calidad del aire No disponible.
Flu Activity Sporadic
METAR KRHI 250353Z AUTO 23009KT 9SM OVC007 12/11 A2983 RMK AO2 SLP107 T01170106

More Conditions Fewer Conditions

10-Day Weather Forecast

Almanac

Astronomía

Oct. 24, 2014 Salida Puesta
Hora real 7:26 AM CDT 5:56 PM CDT
Crepúsculo civil 6:56 AM CDT 6:27 PM CDT
Crepúsculo náutico 6:21 AM CDT 7:01 PM CDT
Crepúsculo astronómico 5:47 AM CDT 7:36 PM CDT
Luna 8:07 AM CDT (10/24) 6:34 PM CDT (10/24)
Horas de luz 11h 31m
Horas de luz
10h 30m
Tomorrow will be 2m 58s shorter.
Luna nueva, 2% of the Moon is Illuminated
Oct 25
Luna nueva
Oct 30
Cuarto creciente
Nov 6
Luna llena
Nov 14
Cuarto menguante
Nov 22
Nueva

Extremos de hoy

Máximos del estado Bajos del estado

Community

WunderPhotos

Upload Photos

1,764,779 ¡fotos cargadas!

Nearby

Grosos de nieve

Estación Profundido Altura
No tenemos constancia de nieve nueva.

Actividad de terremotos

Ciudad Distance Mag. Tiempo y dato
No hay informes recientes de la actividad sísmica.
Magnitud mínima muestra es 2,5.

Temperaturas de aguas costeras

Lugar Temperatura
Sin partes meteorológicos de las estaciones

Estaciones meteorológicas cercanas